createdAt,value
2017-09-04T00:00:26.310Z,100295.56
2017-09-04T00:02:53.886Z,100286.97
2017-09-04T00:05:21.283Z,100288.37
2017-09-04T00:07:48.682Z,100285.98
2017-09-04T00:10:16.088Z,100287.52
2017-09-04T00:12:43.474Z,100289.37
2017-09-04T00:15:11.034Z,100290.55
2017-09-04T00:17:38.442Z,100288.37
2017-09-04T00:20:05.886Z,100290.32
2017-09-04T00:22:33.294Z,100287.64
2017-09-04T00:25:00.690Z,100287.09
2017-09-04T00:27:28.223Z,100287.34
2017-09-04T00:29:55.615Z,100285.94
2017-09-04T00:32:23.010Z,100290.09
2017-09-04T00:34:50.430Z,100287.75
2017-09-04T00:37:17.831Z,100284.24
2017-09-04T00:39:45.386Z,100283.54
2017-09-04T00:42:12.787Z,100285.99
2017-09-04T00:44:40.210Z,100282.64
2017-09-04T00:47:07.619Z,100282.44
2017-09-04T00:49:35.166Z,100279.77
2017-09-04T00:52:02.730Z,100282.16
2017-09-04T00:54:30.145Z,100281.41
2017-09-04T00:56:57.546Z,100280.87
2017-09-04T00:59:24.941Z,100285.15
2017-09-04T01:01:52.411Z,100285.01
2017-09-04T01:04:20.184Z,100280.95
2017-09-04T01:06:47.587Z,100273.30
2017-09-04T01:09:15.015Z,100285.23
2017-09-04T01:11:42.419Z,100284.00
2017-09-04T01:14:09.815Z,100285.77
2017-09-04T01:16:37.314Z,100276.73
2017-09-04T01:19:04.718Z,100283.38
2017-09-04T01:21:32.120Z,100282.42
2017-09-04T01:23:59.534Z,100283.09
2017-09-04T01:26:26.943Z,100272.59
2017-09-04T01:28:54.450Z,100277.59
2017-09-04T01:31:21.846Z,100283.44
2017-09-04T01:33:49.243Z,100284.66
2017-09-04T01:36:16.646Z,100279.16
2017-09-04T01:38:44.054Z,100278.30
2017-09-04T01:41:11.462Z,100280.34
2017-09-04T01:43:38.866Z,100282.31
2017-09-04T01:46:06.266Z,100280.97
2017-09-04T01:48:33.663Z,100275.32
2017-09-04T01:51:01.060Z,100276.08
2017-09-04T01:53:28.470Z,100280.08
2017-09-04T01:55:55.879Z,100282.02
2017-09-04T01:58:23.259Z,100277.46
2017-09-04T02:00:50.678Z,100281.41
2017-09-04T02:03:18.078Z,100277.86
2017-09-04T02:05:45.815Z,100272.42
2017-09-04T02:08:13.202Z,100275.38
2017-09-04T02:10:40.604Z,100277.34
2017-09-04T02:13:08.003Z,100279.88
2017-09-04T02:15:35.439Z,100280.28
2017-09-04T02:18:02.966Z,100278.77
2017-09-04T02:20:30.384Z,100280.33
2017-09-04T02:22:57.778Z,100275.61
2017-09-04T02:25:25.182Z,100267.53
2017-09-04T02:27:52.575Z,100274.15
2017-09-04T02:30:20.106Z,100272.48
2017-09-04T02:32:47.535Z,100276.67
2017-09-04T02:35:14.936Z,100276.62
2017-09-04T02:37:42.368Z,100273.24
2017-09-04T02:40:09.778Z,100274.13
2017-09-04T02:42:37.337Z,100275.45
2017-09-04T02:45:04.734Z,100277.64
2017-09-04T02:47:32.123Z,100276.64
2017-09-04T02:49:59.544Z,100273.38
2017-09-04T02:52:26.972Z,100271.34
2017-09-04T02:54:54.504Z,100277.73
2017-09-04T02:57:21.890Z,100268.86
2017-09-04T02:59:49.282Z,100275.26
2017-09-04T03:02:16.686Z,100272.09
2017-09-04T03:04:44.094Z,100272.16
2017-09-04T03:07:11.654Z,100264.67
2017-09-04T03:09:39.042Z,100263.75
2017-09-04T03:12:06.438Z,100257.85
2017-09-04T03:14:33.863Z,100261.78
2017-09-04T03:17:01.271Z,100258.85
2017-09-04T03:19:28.818Z,100261.63
2017-09-04T03:21:56.282Z,100260.36
2017-09-04T03:24:23.687Z,100264.25
2017-09-04T03:26:51.087Z,100264.55
2017-09-04T03:29:18.987Z,100263.55
2017-09-04T03:31:46.482Z,100273.34
2017-09-04T03:34:13.875Z,100267.53
2017-09-04T03:36:41.271Z,100267.82
2017-09-04T03:39:08.679Z,100263.85
2017-09-04T03:41:36.078Z,100267.11
2017-09-04T03:44:03.650Z,100275.14
2017-09-04T03:46:31.048Z,100275.05
2017-09-04T03:48:58.442Z,100281.00
2017-09-04T03:51:25.846Z,100276.28
2017-09-04T03:53:53.243Z,100283.97
2017-09-04T03:56:20.804Z,100281.42
2017-09-04T03:58:48.210Z,100286.31
2017-09-04T04:01:15.604Z,100291.63
2017-09-04T04:03:43.015Z,100294.46
2017-09-04T04:06:10.409Z,100290.24
2017-09-04T04:08:37.860Z,100295.85
2017-09-04T04:11:05.302Z,100290.83
2017-09-04T04:13:32.701Z,100299.61
2017-09-04T04:16:00.099Z,100301.70
2017-09-04T04:18:27.489Z,100300.48
2017-09-04T04:20:55.051Z,100291.28
2017-09-04T04:23:22.462Z,100297.35
2017-09-04T04:25:49.879Z,100296.47
2017-09-04T04:28:17.274Z,100300.40
2017-09-04T04:30:44.676Z,100294.34
2017-09-04T04:33:12.086Z,100292.02
2017-09-04T04:35:39.508Z,100295.42
2017-09-04T04:38:06.902Z,100290.07
2017-09-04T04:40:34.304Z,100294.24
2017-09-04T04:43:01.706Z,100293.61
2017-09-04T04:45:29.102Z,100298.80
2017-09-04T04:47:56.502Z,100309.38
2017-09-04T04:50:23.910Z,100310.34
2017-09-04T04:52:51.302Z,100309.89
2017-09-04T04:55:18.702Z,100310.76
2017-09-04T04:57:46.126Z,100309.59
2017-09-04T05:00:13.523Z,100315.08
2017-09-04T05:02:41.105Z,100315.95
2017-09-04T05:05:08.491Z,100316.38
2017-09-04T05:07:35.902Z,100316.72
2017-09-04T05:10:03.313Z,100317.14
2017-09-04T05:12:30.706Z,100317.93
2017-09-04T05:14:58.285Z,100307.81
2017-09-04T05:17:25.690Z,100315.55
2017-09-04T05:19:53.091Z,100317.34
2017-09-04T05:22:20.497Z,100314.16
2017-09-04T05:24:47.894Z,100320.94
2017-09-04T05:27:15.344Z,100318.92
2017-09-04T05:29:42.735Z,100322.14
2017-09-04T05:32:10.131Z,100313.40
2017-09-04T05:34:37.543Z,100314.98
2017-09-04T05:37:04.945Z,100309.31
2017-09-04T05:39:32.446Z,100312.94
2017-09-04T05:41:59.843Z,100313.73
2017-09-04T05:44:27.238Z,100314.47
2017-09-04T05:46:54.754Z,100315.80
2017-09-04T05:49:22.146Z,100313.50
2017-09-04T05:51:49.831Z,100311.81
2017-09-04T05:54:17.222Z,100312.42
2017-09-04T05:56:44.620Z,100318.19
2017-09-04T05:59:12.032Z,100321.05
2017-09-04T06:01:39.431Z,100314.58
2017-09-04T06:04:06.877Z,100312.58
2017-09-04T06:06:34.277Z,100314.00
2017-09-04T06:09:01.680Z,100316.09
2017-09-04T06:11:29.090Z,100312.86
2017-09-04T06:13:56.495Z,100304.78
2017-09-04T06:16:23.894Z,100315.97
2017-09-04T06:18:51.299Z,100304.33
2017-09-04T06:21:18.703Z,100308.23
2017-09-04T06:23:46.106Z,100307.23
2017-09-04T06:26:13.522Z,100310.20
2017-09-04T06:28:40.922Z,100312.89
2017-09-04T06:31:08.330Z,100318.23
2017-09-04T06:33:35.739Z,100314.48
2017-09-04T06:36:03.130Z,100323.38
2017-09-04T06:38:30.546Z,100322.59
2017-09-04T06:40:57.947Z,100325.00
2017-09-04T06:43:25.388Z,100323.50
2017-09-04T06:45:52.783Z,100328.48
2017-09-04T06:48:20.180Z,100333.50
2017-09-04T06:50:47.581Z,100342.48
2017-09-04T06:53:14.971Z,100341.84
2017-09-04T06:55:42.493Z,100352.47
2017-09-04T06:58:09.895Z,100348.44
2017-09-04T07:00:37.291Z,100346.38
2017-09-04T07:03:04.692Z,100360.47
2017-09-04T07:05:32.086Z,100366.92
2017-09-04T07:07:59.498Z,100362.75
2017-09-04T07:10:26.895Z,100363.94
2017-09-04T07:12:54.295Z,100356.84
2017-09-04T07:15:21.696Z,100365.01
2017-09-04T07:17:49.091Z,100360.77
2017-09-04T07:20:16.698Z,100372.56
2017-09-04T07:22:44.100Z,100369.27
2017-09-04T07:25:11.486Z,100372.61
2017-09-04T07:27:38.886Z,100376.05
2017-09-04T07:30:06.282Z,100373.17
2017-09-04T07:32:33.724Z,100383.63
2017-09-04T07:35:01.125Z,100383.58
2017-09-04T07:37:28.518Z,100391.23
2017-09-04T07:39:55.923Z,100390.80
2017-09-04T07:42:23.319Z,100399.74
2017-09-04T07:44:50.843Z,100403.00
2017-09-04T07:47:18.238Z,100417.46
2017-09-04T07:49:45.634Z,100416.73
2017-09-04T07:52:13.038Z,100409.97
2017-09-04T07:54:40.434Z,100411.19
2017-09-04T07:57:07.855Z,100405.96
2017-09-04T07:59:35.294Z,100415.12
2017-09-04T08:02:02.695Z,100404.05
2017-09-04T08:04:30.096Z,100413.00
2017-09-04T08:06:57.491Z,100412.31
2017-09-04T08:09:25.047Z,100411.56
2017-09-04T08:11:52.438Z,100409.77
2017-09-04T08:14:19.858Z,100417.45
2017-09-04T08:16:47.313Z,100414.30
2017-09-04T08:19:14.694Z,100419.28
2017-09-04T08:21:42.247Z,100426.75
2017-09-04T08:24:09.650Z,100424.24
2017-09-04T08:26:37.050Z,100430.07
2017-09-04T08:29:04.459Z,100429.87
2017-09-04T08:31:31.855Z,100427.63
2017-09-04T08:33:59.407Z,100420.90
2017-09-04T08:36:26.803Z,100421.77
2017-09-04T08:38:54.195Z,100424.44
2017-09-04T08:41:21.594Z,100426.58
2017-09-04T08:43:48.990Z,100426.98
2017-09-04T08:46:16.498Z,100428.73
2017-09-04T08:48:43.890Z,100426.13
2017-09-04T08:51:11.299Z,100433.41
2017-09-04T08:53:38.703Z,100433.63
2017-09-04T08:56:06.102Z,100433.28
2017-09-04T08:58:33.770Z,100437.81
2017-09-04T09:01:01.168Z,100430.87
2017-09-04T09:03:28.568Z,100432.40
2017-09-04T09:05:55.970Z,100426.24
2017-09-04T09:08:23.379Z,100431.28
2017-09-04T09:10:50.810Z,100428.99
2017-09-04T09:13:18.212Z,100421.98
2017-09-04T09:15:46.219Z,100416.21
2017-09-04T09:18:13.607Z,100418.12
2017-09-04T09:20:41.000Z,100414.30
2017-09-04T09:23:08.507Z,100407.39
2017-09-04T09:25:35.918Z,100408.86
2017-09-04T09:28:03.307Z,100409.63
2017-09-04T09:30:30.707Z,100414.56
2017-09-04T09:32:58.106Z,100413.64
2017-09-04T09:35:25.607Z,100414.55
2017-09-04T09:37:52.998Z,100411.67
2017-09-04T09:40:20.394Z,100413.87
2017-09-04T09:42:47.808Z,100409.97
2017-09-04T09:45:15.202Z,100408.06
2017-09-04T09:47:42.706Z,100409.34
2017-09-04T09:50:10.107Z,100413.50
2017-09-04T09:52:37.499Z,100414.28
2017-09-04T09:55:04.898Z,100412.77
2017-09-04T09:57:32.304Z,100408.80
2017-09-04T09:59:59.723Z,100413.09
2017-09-04T10:02:27.126Z,100409.97
2017-09-04T10:04:54.522Z,100416.28
2017-09-04T10:07:21.922Z,100416.03
2017-09-04T10:09:49.319Z,100415.75
2017-09-04T10:12:16.879Z,100423.55
2017-09-04T10:14:44.279Z,100432.36
2017-09-04T10:17:11.678Z,100431.06
2017-09-04T10:19:39.080Z,100432.80
2017-09-04T10:22:06.477Z,100430.23
2017-09-04T10:24:33.894Z,100430.61
2017-09-04T10:27:01.287Z,100435.86
2017-09-04T10:29:28.682Z,100435.17
2017-09-04T10:31:56.087Z,100434.88
2017-09-04T10:34:23.482Z,100438.89
2017-09-04T10:36:51.011Z,100430.56
2017-09-04T10:39:18.407Z,100430.41
2017-09-04T10:41:45.811Z,100435.46
2017-09-04T10:44:13.206Z,100426.33
2017-09-04T10:46:40.598Z,100428.41
2017-09-04T10:49:08.123Z,100428.14
2017-09-04T10:51:35.530Z,100428.07
2017-09-04T10:54:02.931Z,100429.66
2017-09-04T10:56:30.330Z,100424.61
2017-09-04T10:58:57.723Z,100425.44
2017-09-04T11:01:25.162Z,100428.48
2017-09-04T11:03:52.560Z,100424.32
2017-09-04T11:06:19.954Z,100424.07
2017-09-04T11:08:47.366Z,100419.33
2017-09-04T11:11:14.763Z,100420.42
2017-09-04T11:13:42.272Z,100417.42
2017-09-04T11:16:09.671Z,100424.92
2017-09-04T11:18:37.069Z,100417.83
2017-09-04T11:21:04.462Z,100412.50
2017-09-04T11:23:31.862Z,100416.45
2017-09-04T11:25:59.391Z,100410.97
2017-09-04T11:28:26.795Z,100418.25
2017-09-04T11:30:54.196Z,100414.30
2017-09-04T11:33:21.605Z,100406.73
2017-09-04T11:35:49.006Z,100405.00
2017-09-04T11:38:16.447Z,100404.78
2017-09-04T11:40:43.844Z,100397.66
2017-09-04T11:43:11.240Z,100403.28
2017-09-04T11:45:38.656Z,100405.98
2017-09-04T11:48:06.046Z,100411.69
2017-09-04T11:50:33.474Z,100410.98
2017-09-04T11:53:00.871Z,100404.52
2017-09-04T11:55:38.740Z,100405.94
2017-09-04T11:58:06.135Z,100411.50
2017-09-04T12:00:42.814Z,100417.98
2017-09-04T12:03:10.283Z,100421.00
2017-09-04T12:05:39.778Z,100417.61
2017-09-04T12:08:07.199Z,100415.77
2017-09-04T12:10:34.594Z,100412.09
2017-09-04T12:13:02.000Z,100410.22
2017-09-04T12:15:29.402Z,100413.97
2017-09-04T12:17:56.799Z,100415.72
2017-09-04T12:20:24.203Z,100410.80
2017-09-04T12:22:51.610Z,100413.14
2017-09-04T12:25:19.002Z,100412.12
2017-09-04T12:27:46.450Z,100424.09
2017-09-04T12:30:13.842Z,100410.66
2017-09-04T12:32:41.251Z,100410.13
2017-09-04T12:35:08.658Z,100411.80
2017-09-04T12:37:36.060Z,100407.86
2017-09-04T12:40:03.614Z,100410.86
2017-09-04T12:42:31.007Z,100412.29
2017-09-04T12:44:58.417Z,100416.94
2017-09-04T12:47:25.815Z,100416.95
2017-09-04T12:49:53.214Z,100419.87
2017-09-04T12:52:20.719Z,100414.55
2017-09-04T12:54:48.164Z,100419.69
2017-09-04T12:57:15.584Z,100417.81
2017-09-04T12:59:43.000Z,100422.12
2017-09-04T13:02:10.400Z,100424.38
2017-09-04T13:04:37.802Z,100432.83
2017-09-04T13:07:05.208Z,100434.70
2017-09-04T13:09:32.619Z,100440.23
2017-09-04T13:15:13.675Z,100450.34
2017-09-04T13:20:46.442Z,100443.22
2017-09-04T13:23:22.310Z,100443.23
2017-09-04T13:26:00.146Z,100451.80
2017-09-04T13:28:33.062Z,100455.19
2017-09-04T13:31:06.114Z,100440.83
2017-09-04T13:33:39.076Z,100447.41
2017-09-04T13:36:11.959Z,100441.59
2017-09-04T13:41:58.971Z,100447.37
2017-09-04T13:44:31.148Z,100440.44
2017-09-04T13:47:14.196Z,100442.16
2017-09-04T13:49:41.597Z,100442.06
2017-09-04T13:52:14.503Z,100446.70
2017-09-04T13:54:47.486Z,100451.47
2017-09-04T14:00:23.018Z,100440.30
2017-09-04T14:06:01.343Z,100449.59
2017-09-04T14:08:34.420Z,100450.31
2017-09-04T14:11:07.455Z,100444.27
2017-09-04T14:13:40.455Z,100446.77
2017-09-04T14:16:23.530Z,100454.35
2017-09-04T14:18:50.934Z,100457.52
2017-09-04T14:21:18.336Z,100454.63
2017-09-04T14:23:45.864Z,100453.09
2017-09-04T14:26:13.271Z,100451.29
2017-09-04T14:28:40.703Z,100453.97
2017-09-04T14:31:08.125Z,100449.70
2017-09-04T14:33:35.550Z,100439.91
2017-09-04T14:36:03.098Z,100452.62
2017-09-04T14:38:30.500Z,100445.95
2017-09-04T14:41:07.820Z,100443.14
2017-09-04T14:46:38.802Z,100436.35
2017-09-04T14:49:06.186Z,100443.31
2017-09-04T14:51:33.582Z,100440.05
2017-09-04T14:54:00.986Z,100435.51
2017-09-04T14:56:28.396Z,100444.88
2017-09-04T14:58:55.952Z,100440.44
2017-09-04T15:01:23.363Z,100438.70
2017-09-04T15:03:50.754Z,100439.68
2017-09-04T15:06:18.158Z,100434.80
2017-09-04T15:08:45.547Z,100442.52
2017-09-04T15:11:13.227Z,100442.48
2017-09-04T15:13:40.622Z,100445.67
2017-09-04T15:16:08.040Z,100448.56
2017-09-04T15:18:35.465Z,100440.19
2017-09-04T15:21:02.859Z,100445.45
2017-09-04T15:23:30.322Z,100448.04
2017-09-04T15:25:57.718Z,100443.18
2017-09-04T15:28:25.110Z,100447.57
2017-09-04T15:30:52.506Z,100440.15
2017-09-04T15:33:19.906Z,100439.19
2017-09-04T15:35:47.311Z,100442.23
2017-09-04T15:38:14.707Z,100445.32
2017-09-04T15:40:42.112Z,100447.51
2017-09-04T15:43:09.510Z,100461.91
2017-09-04T15:45:36.910Z,100474.39
2017-09-04T15:48:04.310Z,100470.38
2017-09-04T15:50:31.702Z,100464.59
2017-09-04T15:52:59.107Z,100465.52
2017-09-04T15:55:26.509Z,100461.92
2017-09-04T15:57:54.094Z,100470.30
2017-09-04T16:00:21.504Z,100466.81
2017-09-04T16:02:48.902Z,100459.68
2017-09-04T16:05:16.322Z,100458.89
2017-09-04T16:07:45.210Z,100455.98
2017-09-04T16:10:12.764Z,100470.00
2017-09-04T16:12:40.159Z,100472.39
2017-09-04T16:15:17.616Z,100466.17
2017-09-04T16:18:00.790Z,100477.39
2017-09-04T16:20:30.683Z,100478.80
2017-09-04T16:22:58.560Z,100473.74
2017-09-04T16:25:42.644Z,100481.78
2017-09-04T16:28:24.767Z,100484.59
2017-09-04T16:30:56.528Z,100479.48
2017-09-04T16:33:24.571Z,100491.06
2017-09-04T16:38:54.606Z,100492.14
2017-09-04T16:41:22.986Z,100493.55
2017-09-04T16:43:56.918Z,100499.23
2017-09-04T16:46:25.120Z,100501.30
2017-09-04T16:49:07.386Z,100505.11
2017-09-04T16:51:38.894Z,100497.41
2017-09-04T16:54:06.313Z,100506.64
2017-09-04T16:56:47.635Z,100508.00
2017-09-04T16:59:15.035Z,100512.77
2017-09-04T17:01:42.439Z,100516.59
2017-09-04T17:04:09.855Z,100515.26
2017-09-04T17:06:43.495Z,100514.30
2017-09-04T17:09:11.574Z,100512.14
2017-09-04T17:11:40.338Z,100503.08
2017-09-04T17:14:07.847Z,100506.89
2017-09-04T17:16:35.247Z,100510.02
2017-09-04T17:19:07.200Z,100500.63
2017-09-04T17:21:35.583Z,100505.23
2017-09-04T17:27:04.836Z,100505.25
2017-09-04T17:29:32.370Z,100510.25
2017-09-04T17:31:59.772Z,100510.53
2017-09-04T17:34:27.171Z,100502.27
2017-09-04T17:36:54.570Z,100504.44
2017-09-04T17:39:21.972Z,100505.39
2017-09-04T17:41:49.494Z,100500.23
2017-09-04T17:44:16.917Z,100500.50
2017-09-04T17:46:44.311Z,100497.91
2017-09-04T17:49:11.730Z,100509.13
2017-09-04T17:51:39.131Z,100506.98
2017-09-04T17:54:06.686Z,100507.19
2017-09-04T17:56:34.087Z,100512.19
2017-09-04T17:59:01.482Z,100513.41
2017-09-04T18:01:28.893Z,100521.65
2017-09-04T18:03:56.288Z,100518.53
2017-09-04T18:06:23.691Z,100518.25
2017-09-04T18:08:51.173Z,100524.25
2017-09-04T18:11:18.602Z,100528.16
2017-09-04T18:13:46.066Z,100533.31
2017-09-04T18:16:13.463Z,100532.48
2017-09-04T18:18:40.882Z,100534.37
2017-09-04T18:21:09.144Z,100526.94
2017-09-04T18:23:36.810Z,100525.97
2017-09-04T18:26:05.296Z,100531.80
2017-09-04T18:28:32.691Z,100539.23
2017-09-04T18:31:00.123Z,100545.73
2017-09-04T18:33:27.541Z,100550.72
2017-09-04T18:35:55.079Z,100559.78
2017-09-04T18:38:22.491Z,100559.65
2017-09-04T18:40:49.893Z,100563.17
2017-09-04T18:43:17.295Z,100563.17
2017-09-04T18:45:44.694Z,100567.26
2017-09-04T18:48:12.102Z,100568.46
2017-09-04T18:50:39.490Z,100563.72
2017-09-04T18:53:07.215Z,100568.98
2017-09-04T18:55:34.615Z,100570.36
2017-09-04T18:58:02.038Z,100566.95
2017-09-04T19:00:29.459Z,100569.09
2017-09-04T19:02:56.854Z,100567.45
2017-09-04T19:05:24.255Z,100578.67
2017-09-04T19:07:51.660Z,100578.52
2017-09-04T19:10:19.167Z,100579.44
2017-09-04T19:12:46.571Z,100575.77
2017-09-04T19:15:13.971Z,100580.64
2017-09-04T19:17:41.446Z,100578.43
2017-09-04T19:20:08.857Z,100574.48
2017-09-04T19:22:36.296Z,100578.27
2017-09-04T19:25:03.683Z,100573.95
2017-09-04T19:27:31.190Z,100579.61
2017-09-04T19:29:58.586Z,100578.78
2017-09-04T19:32:25.983Z,100581.59
2017-09-04T19:34:53.386Z,100585.66
2017-09-04T19:37:20.782Z,100589.05
2017-09-04T19:39:48.238Z,100585.13
2017-09-04T19:42:15.637Z,100587.81
2017-09-04T19:44:43.027Z,100585.80
2017-09-04T19:47:10.443Z,100589.80
2017-09-04T19:49:37.843Z,100606.11
2017-09-04T19:52:05.368Z,100611.22
2017-09-04T19:54:32.784Z,100609.48
2017-09-04T19:57:00.193Z,100607.72
2017-09-04T19:59:27.583Z,100604.57
2017-09-04T20:01:54.998Z,100602.94
2017-09-04T20:04:22.489Z,100608.62
2017-09-04T20:06:49.886Z,100606.25
2017-09-04T20:09:17.291Z,100608.68
2017-09-04T20:11:44.687Z,100610.17
2017-09-04T20:14:12.081Z,100607.56
2017-09-04T20:16:39.495Z,100615.23
2017-09-04T20:19:06.903Z,100608.61
2017-09-04T20:21:34.325Z,100610.51
2017-09-04T20:24:01.730Z,100614.56
2017-09-04T20:26:29.543Z,100619.36
2017-09-04T20:28:57.947Z,100619.92
2017-09-04T20:31:25.348Z,100612.02
2017-09-04T20:33:52.738Z,100613.20
2017-09-04T20:36:20.150Z,100614.42
2017-09-04T20:38:47.546Z,100620.63
2017-09-04T20:41:15.083Z,100614.78
2017-09-04T20:43:42.487Z,100618.42
2017-09-04T20:46:09.873Z,100621.27
2017-09-04T20:48:37.277Z,100620.13
2017-09-04T20:51:04.671Z,100621.89
2017-09-04T20:53:32.229Z,100629.20
2017-09-04T20:55:59.640Z,100632.43
2017-09-04T20:58:27.076Z,100629.97
2017-09-04T21:00:54.482Z,100637.53
2017-09-04T21:03:21.887Z,100640.44
2017-09-04T21:05:49.326Z,100640.06
2017-09-04T21:08:16.735Z,100645.84
2017-09-04T21:10:44.131Z,100640.96
2017-09-04T21:13:11.532Z,100642.70
2017-09-04T21:15:38.931Z,100647.41
2017-09-04T21:18:06.380Z,100643.28
2017-09-04T21:20:33.770Z,100653.44
2017-09-04T21:23:01.168Z,100643.38
2017-09-04T21:25:28.584Z,100645.81
2017-09-04T21:27:55.974Z,100650.10
2017-09-04T21:30:23.484Z,100644.46
2017-09-04T21:32:50.877Z,100641.41
2017-09-04T21:35:18.278Z,100645.60
2017-09-04T21:37:45.675Z,100646.78
2017-09-04T21:40:13.082Z,100644.38
2017-09-04T21:42:40.622Z,100646.25
2017-09-04T21:45:08.014Z,100641.22
2017-09-04T21:47:35.430Z,100645.80
2017-09-04T21:50:02.840Z,100644.13
2017-09-04T21:52:30.230Z,100639.41
2017-09-04T21:54:57.752Z,100642.95
2017-09-04T21:57:25.158Z,100647.80
2017-09-04T21:59:52.558Z,100641.32
2017-09-04T22:02:19.963Z,100644.78
2017-09-04T22:04:47.362Z,100647.58
2017-09-04T22:07:14.811Z,100651.73
2017-09-04T22:09:42.218Z,100647.44
2017-09-04T22:12:09.614Z,100651.77
2017-09-04T22:14:37.017Z,100650.04
2017-09-04T22:17:04.414Z,100649.52
2017-09-04T22:19:31.977Z,100655.52
2017-09-04T22:21:59.365Z,100647.70
2017-09-04T22:24:26.773Z,100652.20
2017-09-04T22:26:54.179Z,100653.98
2017-09-04T22:29:21.571Z,100651.84
2017-09-04T22:31:49.120Z,100650.37
2017-09-04T22:34:16.516Z,100651.84
2017-09-04T22:36:43.918Z,100654.95
2017-09-04T22:39:11.328Z,100656.34
2017-09-04T22:41:38.719Z,100655.13
2017-09-04T22:44:06.350Z,100649.86
2017-09-04T22:46:33.750Z,100650.38
2017-09-04T22:49:01.139Z,100645.63
2017-09-04T22:51:28.542Z,100645.08
2017-09-04T22:53:55.944Z,100640.05
2017-09-04T22:56:23.537Z,100639.91
2017-09-04T22:58:50.930Z,100637.34
2017-09-04T23:01:18.327Z,100635.03
2017-09-04T23:03:45.728Z,100642.19
2017-09-04T23:06:13.119Z,100640.05
2017-09-04T23:08:40.542Z,100646.80
2017-09-04T23:11:07.934Z,100633.26
2017-09-04T23:13:35.336Z,100639.31
2017-09-04T23:16:02.742Z,100639.73
2017-09-04T23:18:30.138Z,100638.20
2017-09-04T23:20:57.562Z,100636.44
2017-09-04T23:23:24.959Z,100637.55
2017-09-04T23:25:52.350Z,100642.26
2017-09-04T23:28:19.755Z,100641.19
2017-09-04T23:30:47.158Z,100635.64
2017-09-04T23:33:14.713Z,100634.07
2017-09-04T23:35:42.102Z,100636.26
2017-09-04T23:38:09.494Z,100628.66
2017-09-04T23:40:37.268Z,100633.52
2017-09-04T23:43:04.670Z,100634.73
2017-09-04T23:45:32.071Z,100629.46
2017-09-04T23:47:59.475Z,100632.12
2017-09-04T23:50:27.850Z,100638.08
2017-09-04T23:52:55.256Z,100634.45
2017-09-04T23:55:22.653Z,100639.12
2017-09-04T23:57:50.078Z,100642.48
